Terminal Aerodrome Forecast
Issued by NWS

Home | Current Version | Previous Version | Text Only | Print | Product List | Glossary Off
Versions: 1 2 3 4 5 6 7 8 9 10 11 12

000
FTUS43 KPAH 040520
TAFCGI
TAF
KCGI 040520Z 0406/0506 VRB03KT P6SM SCT250
     FM040800 00000KT 4SM BR SCT070 BKN250
     FM041400 VRB03KT P6SM SCT040 BKN250
     FM050100 VRB03KT P6SM SCT050 BKN100=

USA.gov is the U.S. government's official web portal to all federal, state and local government web resources and services.